sensor_id;sensor_type;location;lat;lon;timestamp;P1;durP1;ratioP1;P2;durP2;ratioP2
25191;SDS011;13143;50.924;5.320;2022-08-21T00:00:10;14.50;;;3.85;;
25191;SDS011;13143;50.924;5.320;2022-08-21T00:02:50;16.05;;;3.80;;
25191;SDS011;13143;50.924;5.320;2022-08-21T00:05:20;10.60;;;3.70;;
25191;SDS011;13143;50.924;5.320;2022-08-21T00:07:46;9.75;;;3.17;;
25191;SDS011;13143;50.924;5.320;2022-08-21T00:10:12;8.27;;;3.50;;
25191;SDS011;13143;50.924;5.320;2022-08-21T00:12:39;13.45;;;3.80;;
25191;SDS011;13143;50.924;5.320;2022-08-21T00:15:06;9.80;;;4.03;;
25191;SDS011;13143;50.924;5.320;2022-08-21T00:17:33;15.98;;;3.88;;
25191;SDS011;13143;50.924;5.320;2022-08-21T00:19:59;13.90;;;3.85;;
25191;SDS011;13143;50.924;5.320;2022-08-21T00:22:25;12.02;;;3.70;;
25191;SDS011;13143;50.924;5.320;2022-08-21T00:24:50;15.63;;;3.92;;
25191;SDS011;13143;50.924;5.320;2022-08-21T00:27:16;7.85;;;3.75;;
25191;SDS011;13143;50.924;5.320;2022-08-21T00:29:42;12.95;;;4.35;;
25191;SDS011;13143;50.924;5.320;2022-08-21T00:32:07;12.25;;;4.05;;
25191;SDS011;13143;50.924;5.320;2022-08-21T00:34:33;9.48;;;3.95;;
25191;SDS011;13143;50.924;5.320;2022-08-21T00:36:59;8.98;;;3.83;;
25191;SDS011;13143;50.924;5.320;2022-08-21T00:39:24;9.38;;;3.70;;
25191;SDS011;13143;50.924;5.320;2022-08-21T00:41:50;6.25;;;3.42;;
25191;SDS011;13143;50.924;5.320;2022-08-21T00:44:15;11.02;;;3.67;;
25191;SDS011;13143;50.924;5.320;2022-08-21T00:46:42;11.07;;;3.65;;
25191;SDS011;13143;50.924;5.320;2022-08-21T00:49:08;13.20;;;4.05;;
25191;SDS011;13143;50.924;5.320;2022-08-21T00:51:50;10.98;;;4.00;;
25191;SDS011;13143;50.924;5.320;2022-08-21T00:54:20;14.43;;;3.72;;
25191;SDS011;13143;50.924;5.320;2022-08-21T00:56:51;13.35;;;4.05;;
25191;SDS011;13143;50.924;5.320;2022-08-21T00:59:20;13.43;;;3.65;;
25191;SDS011;13143;50.924;5.320;2022-08-21T01:01:47;10.32;;;3.58;;
25191;SDS011;13143;50.924;5.320;2022-08-21T01:04:14;15.23;;;3.55;;
25191;SDS011;13143;50.924;5.320;2022-08-21T01:06:41;11.43;;;3.65;;
25191;SDS011;13143;50.924;5.320;2022-08-21T01:09:07;10.10;;;3.90;;
25191;SDS011;13143;50.924;5.320;2022-08-21T01:11:33;10.00;;;3.50;;
25191;SDS011;13143;50.924;5.320;2022-08-21T01:13:59;11.35;;;3.72;;
25191;SDS011;13143;50.924;5.320;2022-08-21T01:16:25;13.15;;;4.07;;
25191;SDS011;13143;50.924;5.320;2022-08-21T01:18:51;14.27;;;4.03;;
25191;SDS011;13143;50.924;5.320;2022-08-21T01:21:21;10.77;;;3.90;;
25191;SDS011;13143;50.924;5.320;2022-08-21T01:23:51;12.02;;;3.55;;
25191;SDS011;13143;50.924;5.320;2022-08-21T01:26:23;15.90;;;4.28;;
25191;SDS011;13143;50.924;5.320;2022-08-21T01:31:30;10.25;;;3.75;;
25191;SDS011;13143;50.924;5.320;2022-08-21T01:33:57;10.20;;;3.72;;
25191;SDS011;13143;50.924;5.320;2022-08-21T01:36:24;13.25;;;4.07;;
25191;SDS011;13143;50.924;5.320;2022-08-21T01:38:51;8.35;;;3.83;;
25191;SDS011;13143;50.924;5.320;2022-08-21T01:41:16;14.77;;;4.15;;
25191;SDS011;13143;50.924;5.320;2022-08-21T01:43:43;9.23;;;3.30;;
25191;SDS011;13143;50.924;5.320;2022-08-21T01:46:10;11.80;;;3.72;;
25191;SDS011;13143;50.924;5.320;2022-08-21T01:48:36;9.45;;;3.65;;
25191;SDS011;13143;50.924;5.320;2022-08-21T01:51:04;6.30;;;3.42;;
25191;SDS011;13143;50.924;5.320;2022-08-21T01:53:30;7.70;;;3.97;;
25191;SDS011;13143;50.924;5.320;2022-08-21T01:55:59;10.52;;;3.63;;
25191;SDS011;13143;50.924;5.320;2022-08-21T01:58:25;10.68;;;3.97;;
25191;SDS011;13143;50.924;5.320;2022-08-21T02:00:50;14.82;;;4.07;;
25191;SDS011;13143;50.924;5.320;2022-08-21T02:03:16;16.15;;;4.20;;
25191;SDS011;13143;50.924;5.320;2022-08-21T02:05:42;11.60;;;3.53;;
25191;SDS011;13143;50.924;5.320;2022-08-21T02:08:07;8.75;;;3.38;;
25191;SDS011;13143;50.924;5.320;2022-08-21T02:10:33;12.00;;;4.13;;
25191;SDS011;13143;50.924;5.320;2022-08-21T02:12:59;14.80;;;4.13;;
25191;SDS011;13143;50.924;5.320;2022-08-21T02:15:26;11.48;;;4.10;;
25191;SDS011;13143;50.924;5.320;2022-08-21T02:17:57;9.63;;;3.90;;
25191;SDS011;13143;50.924;5.320;2022-08-21T02:22:52;10.18;;;4.00;;
25191;SDS011;13143;50.924;5.320;2022-08-21T02:25:19;13.82;;;4.13;;
25191;SDS011;13143;50.924;5.320;2022-08-21T02:27:46;12.88;;;3.80;;
25191;SDS011;13143;50.924;5.320;2022-08-21T02:30:17;9.45;;;3.83;;
25191;SDS011;13143;50.924;5.320;2022-08-21T02:32:47;10.70;;;4.40;;
25191;SDS011;13143;50.924;5.320;2022-08-21T02:35:13;11.05;;;3.80;;
25191;SDS011;13143;50.924;5.320;2022-08-21T02:37:44;10.82;;;3.80;;
25191;SDS011;13143;50.924;5.320;2022-08-21T02:40:15;10.07;;;3.80;;
25191;SDS011;13143;50.924;5.320;2022-08-21T02:42:42;17.27;;;4.15;;
25191;SDS011;13143;50.924;5.320;2022-08-21T02:45:09;8.88;;;3.50;;
25191;SDS011;13143;50.924;5.320;2022-08-21T02:47:35;10.95;;;3.58;;
25191;SDS011;13143;50.924;5.320;2022-08-21T02:50:04;15.23;;;3.78;;
25191;SDS011;13143;50.924;5.320;2022-08-21T02:52:31;11.85;;;3.97;;
25191;SDS011;13143;50.924;5.320;2022-08-21T02:54:58;10.02;;;3.78;;
25191;SDS011;13143;50.924;5.320;2022-08-21T02:57:24;12.88;;;3.63;;
25191;SDS011;13143;50.924;5.320;2022-08-21T02:59:50;10.10;;;4.22;;
25191;SDS011;13143;50.924;5.320;2022-08-21T03:02:15;14.20;;;4.18;;
25191;SDS011;13143;50.924;5.320;2022-08-21T03:04:41;15.18;;;4.00;;
25191;SDS011;13143;50.924;5.320;2022-08-21T03:07:06;13.85;;;3.97;;
25191;SDS011;13143;50.924;5.320;2022-08-21T03:09:32;11.88;;;3.60;;
25191;SDS011;13143;50.924;5.320;2022-08-21T03:11:58;13.05;;;4.00;;
25191;SDS011;13143;50.924;5.320;2022-08-21T03:14:23;11.70;;;3.70;;
25191;SDS011;13143;50.924;5.320;2022-08-21T03:16:49;8.13;;;3.58;;
25191;SDS011;13143;50.924;5.320;2022-08-21T03:19:15;17.23;;;3.42;;
25191;SDS011;13143;50.924;5.320;2022-08-21T03:21:40;7.15;;;3.20;;
25191;SDS011;13143;50.924;5.320;2022-08-21T03:24:06;12.38;;;3.60;;
25191;SDS011;13143;50.924;5.320;2022-08-21T03:26:32;11.95;;;4.15;;
25191;SDS011;13143;50.924;5.320;2022-08-21T03:28:58;13.65;;;3.97;;
25191;SDS011;13143;50.924;5.320;2022-08-21T03:31:24;12.70;;;4.10;;
25191;SDS011;13143;50.924;5.320;2022-08-21T03:33:53;14.20;;;3.58;;
25191;SDS011;13143;50.924;5.320;2022-08-21T03:36:20;15.32;;;3.60;;
25191;SDS011;13143;50.924;5.320;2022-08-21T03:38:46;18.45;;;4.47;;
25191;SDS011;13143;50.924;5.320;2022-08-21T03:41:11;10.95;;;3.78;;
25191;SDS011;13143;50.924;5.320;2022-08-21T03:43:37;13.25;;;3.75;;
25191;SDS011;13143;50.924;5.320;2022-08-21T03:46:03;14.70;;;3.60;;
25191;SDS011;13143;50.924;5.320;2022-08-21T03:48:30;11.65;;;4.10;;
25191;SDS011;13143;50.924;5.320;2022-08-21T03:50:56;18.85;;;4.43;;
25191;SDS011;13143;50.924;5.320;2022-08-21T03:53:22;7.88;;;3.20;;
25191;SDS011;13143;50.924;5.320;2022-08-21T03:55:49;15.23;;;4.00;;
25191;SDS011;13143;50.924;5.320;2022-08-21T03:58:18;13.65;;;3.42;;
25191;SDS011;13143;50.924;5.320;2022-08-21T04:00:46;11.20;;;3.05;;
25191;SDS011;13143;50.924;5.320;2022-08-21T04:03:13;12.05;;;3.70;;
25191;SDS011;13143;50.924;5.320;2022-08-21T04:05:40;10.48;;;3.85;;
25191;SDS011;13143;50.924;5.320;2022-08-21T04:08:06;10.70;;;3.85;;
25191;SDS011;13143;50.924;5.320;2022-08-21T04:10:34;12.90;;;3.45;;
25191;SDS011;13143;50.924;5.320;2022-08-21T04:13:01;8.40;;;3.70;;
25191;SDS011;13143;50.924;5.320;2022-08-21T04:15:28;10.82;;;3.15;;
25191;SDS011;13143;50.924;5.320;2022-08-21T04:17:54;13.80;;;4.00;;
25191;SDS011;13143;50.924;5.320;2022-08-21T04:20:20;12.93;;;3.58;;
25191;SDS011;13143;50.924;5.320;2022-08-21T04:22:47;14.25;;;3.70;;
25191;SDS011;13143;50.924;5.320;2022-08-21T04:25:13;9.48;;;3.05;;
25191;SDS011;13143;50.924;5.320;2022-08-21T04:27:40;15.73;;;3.53;;
25191;SDS011;13143;50.924;5.320;2022-08-21T04:30:06;14.35;;;3.80;;
25191;SDS011;13143;50.924;5.320;2022-08-21T04:32:34;11.75;;;4.03;;
25191;SDS011;13143;50.924;5.320;2022-08-21T04:35:01;9.75;;;3.20;;
25191;SDS011;13143;50.924;5.320;2022-08-21T04:37:29;11.40;;;3.28;;
25191;SDS011;13143;50.924;5.320;2022-08-21T04:39:56;12.00;;;3.40;;
25191;SDS011;13143;50.924;5.320;2022-08-21T04:42:26;11.98;;;3.33;;
25191;SDS011;13143;50.924;5.320;2022-08-21T04:44:53;13.18;;;3.50;;
25191;SDS011;13143;50.924;5.320;2022-08-21T04:47:21;13.23;;;3.40;;
25191;SDS011;13143;50.924;5.320;2022-08-21T04:49:47;14.68;;;3.50;;
25191;SDS011;13143;50.924;5.320;2022-08-21T04:52:13;8.43;;;2.92;;
25191;SDS011;13143;50.924;5.320;2022-08-21T04:54:42;12.20;;;3.10;;
25191;SDS011;13143;50.924;5.320;2022-08-21T04:57:10;12.23;;;3.53;;
25191;SDS011;13143;50.924;5.320;2022-08-21T04:59:41;10.65;;;3.72;;
25191;SDS011;13143;50.924;5.320;2022-08-21T05:02:12;11.48;;;3.42;;
25191;SDS011;13143;50.924;5.320;2022-08-21T05:04:42;13.00;;;3.50;;
25191;SDS011;13143;50.924;5.320;2022-08-21T05:07:14;10.65;;;3.40;;
25191;SDS011;13143;50.924;5.320;2022-08-21T05:09:43;12.38;;;3.28;;
25191;SDS011;13143;50.924;5.320;2022-08-21T05:12:09;9.55;;;3.00;;
25191;SDS011;13143;50.924;5.320;2022-08-21T05:14:35;12.07;;;3.45;;
25191;SDS011;13143;50.924;5.320;2022-08-21T05:17:02;12.00;;;3.85;;
25191;SDS011;13143;50.924;5.320;2022-08-21T05:19:27;10.52;;;3.10;;
25191;SDS011;13143;50.924;5.320;2022-08-21T05:21:54;10.18;;;3.33;;
25191;SDS011;13143;50.924;5.320;2022-08-21T05:24:20;10.15;;;2.85;;
25191;SDS011;13143;50.924;5.320;2022-08-21T05:26:45;11.45;;;3.38;;
25191;SDS011;13143;50.924;5.320;2022-08-21T05:29:11;11.98;;;3.42;;
25191;SDS011;13143;50.924;5.320;2022-08-21T05:31:39;8.63;;;3.20;;
25191;SDS011;13143;50.924;5.320;2022-08-21T05:34:04;10.75;;;2.72;;
25191;SDS011;13143;50.924;5.320;2022-08-21T05:36:31;13.45;;;3.33;;
25191;SDS011;13143;50.924;5.320;2022-08-21T05:38:57;11.23;;;3.20;;
25191;SDS011;13143;50.924;5.320;2022-08-21T05:41:22;12.93;;;3.55;;
25191;SDS011;13143;50.924;5.320;2022-08-21T05:43:48;12.80;;;3.15;;
25191;SDS011;13143;50.924;5.320;2022-08-21T05:46:14;12.00;;;3.30;;
25191;SDS011;13143;50.924;5.320;2022-08-21T05:48:39;12.32;;;3.20;;
25191;SDS011;13143;50.924;5.320;2022-08-21T05:51:09;8.77;;;2.85;;
25191;SDS011;13143;50.924;5.320;2022-08-21T05:53:38;9.70;;;3.55;;
25191;SDS011;13143;50.924;5.320;2022-08-21T05:56:07;9.13;;;3.13;;
25191;SDS011;13143;50.924;5.320;2022-08-21T05:58:33;14.88;;;3.50;;
25191;SDS011;13143;50.924;5.320;2022-08-21T06:01:00;9.60;;;2.90;;
25191;SDS011;13143;50.924;5.320;2022-08-21T06:03:29;13.30;;;3.85;;
25191;SDS011;13143;50.924;5.320;2022-08-21T06:05:57;12.07;;;3.65;;
25191;SDS011;13143;50.924;5.320;2022-08-21T06:08:24;10.60;;;3.88;;
25191;SDS011;13143;50.924;5.320;2022-08-21T06:10:50;11.70;;;3.25;;
25191;SDS011;13143;50.924;5.320;2022-08-21T06:13:18;13.07;;;3.50;;
25191;SDS011;13143;50.924;5.320;2022-08-21T06:15:45;11.57;;;3.80;;
25191;SDS011;13143;50.924;5.320;2022-08-21T06:18:11;14.55;;;3.65;;
25191;SDS011;13143;50.924;5.320;2022-08-21T06:20:37;15.45;;;3.42;;
25191;SDS011;13143;50.924;5.320;2022-08-21T06:23:03;17.40;;;3.80;;
25191;SDS011;13143;50.924;5.320;2022-08-21T06:25:29;13.40;;;3.28;;
25191;SDS011;13143;50.924;5.320;2022-08-21T06:28:06;13.88;;;3.60;;
25191;SDS011;13143;50.924;5.320;2022-08-21T06:30:34;10.30;;;3.40;;
25191;SDS011;13143;50.924;5.320;2022-08-21T06:33:01;14.88;;;3.80;;
25191;SDS011;13143;50.924;5.320;2022-08-21T06:35:28;13.48;;;3.67;;
25191;SDS011;13143;50.924;5.320;2022-08-21T06:37:54;10.32;;;3.33;;
25191;SDS011;13143;50.924;5.320;2022-08-21T06:40:20;12.45;;;2.92;;
25191;SDS011;13143;50.924;5.320;2022-08-21T06:42:46;14.15;;;3.78;;
25191;SDS011;13143;50.924;5.320;2022-08-21T06:45:12;17.00;;;3.97;;
25191;SDS011;13143;50.924;5.320;2022-08-21T06:47:38;12.68;;;3.55;;
25191;SDS011;13143;50.924;5.320;2022-08-21T06:50:04;10.70;;;3.35;;
25191;SDS011;13143;50.924;5.320;2022-08-21T06:52:32;13.73;;;3.25;;
25191;SDS011;13143;50.924;5.320;2022-08-21T06:54:59;12.32;;;3.58;;
25191;SDS011;13143;50.924;5.320;2022-08-21T06:57:25;13.35;;;3.72;;
25191;SDS011;13143;50.924;5.320;2022-08-21T06:59:51;13.45;;;3.15;;
25191;SDS011;13143;50.924;5.320;2022-08-21T07:02:16;15.63;;;3.25;;
25191;SDS011;13143;50.924;5.320;2022-08-21T07:04:42;11.05;;;2.97;;
25191;SDS011;13143;50.924;5.320;2022-08-21T07:07:08;9.02;;;3.22;;
25191;SDS011;13143;50.924;5.320;2022-08-21T07:09:34;11.35;;;3.40;;
25191;SDS011;13143;50.924;5.320;2022-08-21T07:12:00;9.45;;;2.80;;
25191;SDS011;13143;50.924;5.320;2022-08-21T07:14:27;8.55;;;3.15;;
25191;SDS011;13143;50.924;5.320;2022-08-21T07:16:52;14.98;;;3.30;;
25191;SDS011;13143;50.924;5.320;2022-08-21T07:19:18;9.40;;;3.42;;
25191;SDS011;13143;50.924;5.320;2022-08-21T07:21:45;14.43;;;3.38;;
25191;SDS011;13143;50.924;5.320;2022-08-21T07:24:11;16.20;;;3.03;;
25191;SDS011;13143;50.924;5.320;2022-08-21T07:26:37;15.73;;;3.15;;
25191;SDS011;13143;50.924;5.320;2022-08-21T07:29:03;10.82;;;3.10;;
25191;SDS011;13143;50.924;5.320;2022-08-21T07:31:30;15.68;;;2.83;;
25191;SDS011;13143;50.924;5.320;2022-08-21T07:33:55;8.40;;;2.45;;
25191;SDS011;13143;50.924;5.320;2022-08-21T07:36:21;13.68;;;2.97;;
25191;SDS011;13143;50.924;5.320;2022-08-21T07:38:47;12.50;;;2.50;;
25191;SDS011;13143;50.924;5.320;2022-08-21T07:41:17;14.10;;;3.17;;
25191;SDS011;13143;50.924;5.320;2022-08-21T07:43:47;12.43;;;3.15;;
25191;SDS011;13143;50.924;5.320;2022-08-21T07:46:13;13.32;;;2.38;;
25191;SDS011;13143;50.924;5.320;2022-08-21T07:48:39;10.23;;;2.88;;
25191;SDS011;13143;50.924;5.320;2022-08-21T07:51:07;11.27;;;2.75;;
25191;SDS011;13143;50.924;5.320;2022-08-21T07:53:35;12.35;;;2.65;;
25191;SDS011;13143;50.924;5.320;2022-08-21T07:56:02;10.95;;;3.08;;
25191;SDS011;13143;50.924;5.320;2022-08-21T07:58:30;14.18;;;3.42;;
25191;SDS011;13143;50.924;5.320;2022-08-21T08:00:56;11.15;;;3.05;;
25191;SDS011;13143;50.924;5.320;2022-08-21T08:03:22;12.90;;;2.92;;
25191;SDS011;13143;50.924;5.320;2022-08-21T08:05:48;10.63;;;2.78;;
25191;SDS011;13143;50.924;5.320;2022-08-21T08:08:14;9.88;;;2.72;;
25191;SDS011;13143;50.924;5.320;2022-08-21T08:10:39;11.93;;;2.95;;
25191;SDS011;13143;50.924;5.320;2022-08-21T08:13:06;14.18;;;3.00;;
25191;SDS011;13143;50.924;5.320;2022-08-21T08:15:32;12.27;;;3.00;;
25191;SDS011;13143;50.924;5.320;2022-08-21T08:17:57;11.75;;;3.40;;
25191;SDS011;13143;50.924;5.320;2022-08-21T08:20:23;16.00;;;3.13;;
25191;SDS011;13143;50.924;5.320;2022-08-21T08:22:51;13.80;;;3.38;;
25191;SDS011;13143;50.924;5.320;2022-08-21T08:25:18;12.77;;;2.67;;
25191;SDS011;13143;50.924;5.320;2022-08-21T08:27:45;9.60;;;2.35;;
25191;SDS011;13143;50.924;5.320;2022-08-21T08:30:11;9.48;;;2.13;;
25191;SDS011;13143;50.924;5.320;2022-08-21T08:32:39;12.52;;;2.95;;
25191;SDS011;13143;50.924;5.320;2022-08-21T08:35:06;14.68;;;2.45;;
25191;SDS011;13143;50.924;5.320;2022-08-21T08:37:32;11.07;;;2.55;;
25191;SDS011;13143;50.924;5.320;2022-08-21T08:39:59;8.52;;;2.08;;
25191;SDS011;13143;50.924;5.320;2022-08-21T08:42:33;11.43;;;2.97;;
25191;SDS011;13143;50.924;5.320;2022-08-21T08:45:08;6.38;;;2.25;;
25191;SDS011;13143;50.924;5.320;2022-08-21T08:47:43;8.38;;;2.20;;
25191;SDS011;13143;50.924;5.320;2022-08-21T08:50:20;8.23;;;2.17;;
25191;SDS011;13143;50.924;5.320;2022-08-21T08:53:04;13.73;;;2.78;;
25191;SDS011;13143;50.924;5.320;2022-08-21T08:55:34;7.43;;;2.10;;
25191;SDS011;13143;50.924;5.320;2022-08-21T08:58:06;7.43;;;2.28;;
25191;SDS011;13143;50.924;5.320;2022-08-21T09:00:33;10.05;;;2.58;;
25191;SDS011;13143;50.924;5.320;2022-08-21T09:03:00;9.50;;;1.92;;
25191;SDS011;13143;50.924;5.320;2022-08-21T09:05:29;7.70;;;1.95;;
25191;SDS011;13143;50.924;5.320;2022-08-21T09:24:54;10.30;;;2.83;;
25191;SDS011;13143;50.924;5.320;2022-08-21T09:27:36;10.00;;;2.20;;
25191;SDS011;13143;50.924;5.320;2022-08-21T09:30:02;8.57;;;2.35;;
25191;SDS011;13143;50.924;5.320;2022-08-21T09:32:32;10.88;;;2.40;;
25191;SDS011;13143;50.924;5.320;2022-08-21T09:35:01;6.93;;;2.05;;
25191;SDS011;13143;50.924;5.320;2022-08-21T09:37:33;9.27;;;2.55;;
25191;SDS011;13143;50.924;5.320;2022-08-21T09:40:18;13.68;;;2.40;;
25191;SDS011;13143;50.924;5.320;2022-08-21T09:42:52;11.55;;;2.20;;
25191;SDS011;13143;50.924;5.320;2022-08-21T09:45:20;8.40;;;2.60;;
25191;SDS011;13143;50.924;5.320;2022-08-21T09:47:45;8.98;;;2.83;;
25191;SDS011;13143;50.924;5.320;2022-08-21T09:50:15;7.07;;;2.05;;
25191;SDS011;13143;50.924;5.320;2022-08-21T09:52:46;11.07;;;2.45;;
25191;SDS011;13143;50.924;5.320;2022-08-21T09:55:20;9.90;;;2.10;;
25191;SDS011;13143;50.924;5.320;2022-08-21T09:58:12;8.35;;;2.20;;
25191;SDS011;13143;50.924;5.320;2022-08-21T10:00:38;7.15;;;1.70;;
25191;SDS011;13143;50.924;5.320;2022-08-21T10:05:54;7.85;;;1.80;;
25191;SDS011;13143;50.924;5.320;2022-08-21T10:08:30;8.48;;;1.98;;
25191;SDS011;13143;50.924;5.320;2022-08-21T10:11:02;11.38;;;1.98;;
25191;SDS011;13143;50.924;5.320;2022-08-21T10:16:43;8.35;;;1.95;;
25191;SDS011;13143;50.924;5.320;2022-08-21T10:22:02;7.28;;;1.95;;
25191;SDS011;13143;50.924;5.320;2022-08-21T10:30:36;12.10;;;1.92;;
25191;SDS011;13143;50.924;5.320;2022-08-21T10:36:14;10.20;;;2.00;;
25191;SDS011;13143;50.924;5.320;2022-08-21T10:39:03;5.90;;;1.70;;
25191;SDS011;13143;50.924;5.320;2022-08-21T10:49:36;12.77;;;2.28;;
25191;SDS011;13143;50.924;5.320;2022-08-21T10:52:45;10.05;;;2.33;;
25191;SDS011;13143;50.924;5.320;2022-08-21T10:55:14;11.48;;;2.28;;
25191;SDS011;13143;50.924;5.320;2022-08-21T11:00:38;9.65;;;2.35;;
25191;SDS011;13143;50.924;5.320;2022-08-21T11:03:20;12.38;;;2.17;;
25191;SDS011;13143;50.924;5.320;2022-08-21T11:05:48;9.38;;;2.22;;
25191;SDS011;13143;50.924;5.320;2022-08-21T11:11:04;12.63;;;2.03;;
25191;SDS011;13143;50.924;5.320;2022-08-21T11:13:45;11.02;;;2.22;;
25191;SDS011;13143;50.924;5.320;2022-08-21T11:19:22;9.35;;;2.22;;
25191;SDS011;13143;50.924;5.320;2022-08-21T11:22:35;9.00;;;2.03;;
25191;SDS011;13143;50.924;5.320;2022-08-21T11:29:50;9.55;;;2.30;;
25191;SDS011;13143;50.924;5.320;2022-08-21T11:51:14;14.18;;;2.50;;
25191;SDS011;13143;50.924;5.320;2022-08-21T11:53:58;15.18;;;3.45;;
25191;SDS011;13143;50.924;5.320;2022-08-21T12:00:17;13.80;;;2.88;;
25191;SDS011;13143;50.924;5.320;2022-08-21T12:02:49;17.25;;;2.38;;
25191;SDS011;13143;50.924;5.320;2022-08-21T12:05:34;9.00;;;1.90;;
25191;SDS011;13143;50.924;5.320;2022-08-21T12:08:06;9.25;;;2.03;;
25191;SDS011;13143;50.924;5.320;2022-08-21T12:10:42;13.75;;;2.22;;
25191;SDS011;13143;50.924;5.320;2022-08-21T12:13:29;11.57;;;2.00;;
25191;SDS011;13143;50.924;5.320;2022-08-21T12:16:06;14.27;;;3.10;;
25191;SDS011;13143;50.924;5.320;2022-08-21T12:18:32;11.63;;;2.47;;
25191;SDS011;13143;50.924;5.320;2022-08-21T12:23:31;11.68;;;2.53;;
25191;SDS011;13143;50.924;5.320;2022-08-21T12:26:27;11.43;;;2.72;;
25191;SDS011;13143;50.924;5.320;2022-08-21T12:31:33;13.88;;;2.38;;
25191;SDS011;13143;50.924;5.320;2022-08-21T12:33:59;15.25;;;3.00;;
25191;SDS011;13143;50.924;5.320;2022-08-21T12:36:41;9.88;;;2.42;;
25191;SDS011;13143;50.924;5.320;2022-08-21T12:39:17;10.82;;;2.20;;
25191;SDS011;13143;50.924;5.320;2022-08-21T12:44:54;8.55;;;2.53;;
25191;SDS011;13143;50.924;5.320;2022-08-21T12:47:34;8.75;;;2.22;;
25191;SDS011;13143;50.924;5.320;2022-08-21T12:50:15;8.30;;;2.50;;
25191;SDS011;13143;50.924;5.320;2022-08-21T12:52:48;11.07;;;2.92;;
25191;SDS011;13143;50.924;5.320;2022-08-21T12:55:25;12.32;;;2.33;;
25191;SDS011;13143;50.924;5.320;2022-08-21T12:57:53;11.73;;;2.78;;
25191;SDS011;13143;50.924;5.320;2022-08-21T13:00:21;8.90;;;2.22;;
25191;SDS011;13143;50.924;5.320;2022-08-21T13:02:49;11.88;;;2.30;;
25191;SDS011;13143;50.924;5.320;2022-08-21T13:05:19;16.85;;;2.50;;
25191;SDS011;13143;50.924;5.320;2022-08-21T13:07:59;8.77;;;2.78;;
25191;SDS011;13143;50.924;5.320;2022-08-21T13:10:30;10.70;;;2.22;;
25191;SDS011;13143;50.924;5.320;2022-08-21T13:12:58;8.35;;;2.20;;
25191;SDS011;13143;50.924;5.320;2022-08-21T13:15:28;11.50;;;2.20;;
25191;SDS011;13143;50.924;5.320;2022-08-21T13:17:56;9.43;;;2.17;;
25191;SDS011;13143;50.924;5.320;2022-08-21T13:20:29;7.35;;;1.98;;
25191;SDS011;13143;50.924;5.320;2022-08-21T13:23:03;11.05;;;2.33;;
25191;SDS011;13143;50.924;5.320;2022-08-21T13:25:47;11.48;;;2.53;;
25191;SDS011;13143;50.924;5.320;2022-08-21T13:28:13;16.13;;;2.60;;
25191;SDS011;13143;50.924;5.320;2022-08-21T13:30:50;9.93;;;2.55;;
25191;SDS011;13143;50.924;5.320;2022-08-21T13:33:19;14.35;;;3.10;;
25191;SDS011;13143;50.924;5.320;2022-08-21T13:38:30;12.75;;;2.53;;
25191;SDS011;13143;50.924;5.320;2022-08-21T13:43:28;8.68;;;2.10;;
25191;SDS011;13143;50.924;5.320;2022-08-21T13:45:56;8.75;;;2.05;;
25191;SDS011;13143;50.924;5.320;2022-08-21T13:48:24;13.23;;;2.50;;
25191;SDS011;13143;50.924;5.320;2022-08-21T13:50:53;11.00;;;2.33;;
25191;SDS011;13143;50.924;5.320;2022-08-21T13:55:56;16.90;;;3.08;;
25191;SDS011;13143;50.924;5.320;2022-08-21T13:58:24;11.73;;;2.30;;
25191;SDS011;13143;50.924;5.320;2022-08-21T14:00:52;7.60;;;2.30;;
25191;SDS011;13143;50.924;5.320;2022-08-21T14:03:41;13.20;;;2.22;;
25191;SDS011;13143;50.924;5.320;2022-08-21T14:06:20;15.00;;;2.40;;
25191;SDS011;13143;50.924;5.320;2022-08-21T14:08:50;11.20;;;2.65;;
25191;SDS011;13143;50.924;5.320;2022-08-21T14:11:18;15.48;;;2.83;;
25191;SDS011;13143;50.924;5.320;2022-08-21T14:13:49;9.55;;;2.42;;
25191;SDS011;13143;50.924;5.320;2022-08-21T14:16:28;11.38;;;2.80;;
25191;SDS011;13143;50.924;5.320;2022-08-21T14:19:25;13.25;;;2.65;;
25191;SDS011;13143;50.924;5.320;2022-08-21T14:24:26;8.13;;;2.05;;
25191;SDS011;13143;50.924;5.320;2022-08-21T14:27:12;9.95;;;1.98;;
25191;SDS011;13143;50.924;5.320;2022-08-21T14:29:43;12.82;;;2.40;;
25191;SDS011;13143;50.924;5.320;2022-08-21T14:32:10;13.80;;;2.70;;
25191;SDS011;13143;50.924;5.320;2022-08-21T14:34:41;15.63;;;2.78;;
25191;SDS011;13143;50.924;5.320;2022-08-21T14:37:06;10.55;;;2.22;;
25191;SDS011;13143;50.924;5.320;2022-08-21T14:39:32;14.93;;;2.80;;
25191;SDS011;13143;50.924;5.320;2022-08-21T14:41:58;10.82;;;2.25;;
25191;SDS011;13143;50.924;5.320;2022-08-21T14:44:25;7.22;;;2.05;;
25191;SDS011;13143;50.924;5.320;2022-08-21T14:46:53;8.98;;;2.08;;
25191;SDS011;13143;50.924;5.320;2022-08-21T14:49:20;6.65;;;1.95;;
25191;SDS011;13143;50.924;5.320;2022-08-21T14:51:46;7.47;;;1.98;;
25191;SDS011;13143;50.924;5.320;2022-08-21T14:54:12;12.88;;;3.22;;
25191;SDS011;13143;50.924;5.320;2022-08-21T14:56:37;13.32;;;2.65;;
25191;SDS011;13143;50.924;5.320;2022-08-21T14:59:05;11.35;;;2.40;;
25191;SDS011;13143;50.924;5.320;2022-08-21T15:01:34;12.05;;;2.33;;
25191;SDS011;13143;50.924;5.320;2022-08-21T15:04:09;13.07;;;2.53;;
25191;SDS011;13143;50.924;5.320;2022-08-21T15:06:35;12.00;;;2.60;;
25191;SDS011;13143;50.924;5.320;2022-08-21T15:09:01;9.32;;;2.10;;
25191;SDS011;13143;50.924;5.320;2022-08-21T15:11:28;13.85;;;2.65;;
25191;SDS011;13143;50.924;5.320;2022-08-21T15:13:56;9.52;;;1.92;;
25191;SDS011;13143;50.924;5.320;2022-08-21T15:16:24;9.63;;;2.22;;
25191;SDS011;13143;50.924;5.320;2022-08-21T15:18:51;9.90;;;2.58;;
25191;SDS011;13143;50.924;5.320;2022-08-21T15:21:17;12.25;;;2.20;;
25191;SDS011;13143;50.924;5.320;2022-08-21T15:23:43;12.25;;;2.67;;
25191;SDS011;13143;50.924;5.320;2022-08-21T15:26:08;15.30;;;2.40;;
25191;SDS011;13143;50.924;5.320;2022-08-21T15:28:34;9.60;;;2.30;;
25191;SDS011;13143;50.924;5.320;2022-08-21T15:31:01;7.45;;;1.88;;
25191;SDS011;13143;50.924;5.320;2022-08-21T15:33:27;7.95;;;2.20;;
25191;SDS011;13143;50.924;5.320;2022-08-21T15:35:53;10.27;;;2.08;;
25191;SDS011;13143;50.924;5.320;2022-08-21T15:38:19;7.63;;;1.92;;
25191;SDS011;13143;50.924;5.320;2022-08-21T15:40:44;15.93;;;2.70;;
25191;SDS011;13143;50.924;5.320;2022-08-21T15:43:21;8.88;;;2.28;;
25191;SDS011;13143;50.924;5.320;2022-08-21T15:45:50;15.02;;;2.90;;
25191;SDS011;13143;50.924;5.320;2022-08-21T15:48:16;9.85;;;3.65;;
25191;SDS011;13143;50.924;5.320;2022-08-21T15:50:42;13.43;;;2.58;;
25191;SDS011;13143;50.924;5.320;2022-08-21T15:53:08;11.65;;;2.40;;
25191;SDS011;13143;50.924;5.320;2022-08-21T15:55:34;9.75;;;2.20;;
25191;SDS011;13143;50.924;5.320;2022-08-21T15:58:00;9.32;;;2.75;;
25191;SDS011;13143;50.924;5.320;2022-08-21T16:00:26;8.77;;;2.53;;
25191;SDS011;13143;50.924;5.320;2022-08-21T16:02:53;12.55;;;2.75;;
25191;SDS011;13143;50.924;5.320;2022-08-21T16:05:21;9.38;;;2.20;;
25191;SDS011;13143;50.924;5.320;2022-08-21T16:07:48;10.60;;;2.53;;
25191;SDS011;13143;50.924;5.320;2022-08-21T16:10:16;15.13;;;3.35;;
25191;SDS011;13143;50.924;5.320;2022-08-21T16:12:47;9.27;;;2.83;;
25191;SDS011;13143;50.924;5.320;2022-08-21T16:15:19;11.30;;;3.47;;
25191;SDS011;13143;50.924;5.320;2022-08-21T16:17:45;11.18;;;2.75;;
25191;SDS011;13143;50.924;5.320;2022-08-21T16:20:14;8.63;;;2.22;;
25191;SDS011;13143;50.924;5.320;2022-08-21T16:22:42;13.02;;;2.90;;
25191;SDS011;13143;50.924;5.320;2022-08-21T16:25:08;7.20;;;2.15;;
25191;SDS011;13143;50.924;5.320;2022-08-21T16:27:34;9.45;;;2.08;;
25191;SDS011;13143;50.924;5.320;2022-08-21T16:30:01;9.82;;;2.30;;